Terminal Aerodrome Forecast
Issued by NWS Milwaukee/Sullivan, WI

Home | Current Version | Previous Version | Text Only | Print | Product List | Glossary On
Versions: 1 2 3 4 5 6 7 8 9 10 11 12 13 14 15 16 17 18 19 20 21 22 23 24 25 26 27 28 29 30 31 32 33 34 35 36 37 38 39 40 41 42 43 44 45 46 47 48 49 50
000
FTUS43 KMKX 192320
TAFMSN
TAF
KMSN 192320Z 2000/2024 00000KT P6SM OVC015
     FM200200 00000KT P6SM OVC020
     FM200800 00000KT P6SM OVC035
     FM201100 VRB03KT 3SM -FZDZ BR OVC035
     FM201600 17004KT 5SM -FZDZ BR OVC035
     FM201700 17005KT 6SM -FZDZ BR OVC015
     FM201800 18005KT 6SM -DZ BR OVC015
     FM201900 18005KT P6SM OVC015=

USA.gov is the U.S. government's official web portal to all federal, state and local government web resources and services.